createdAt,value
2022-10-17T00:01:21.975Z,100.00
2022-10-17T00:03:48.509Z,100.00
2022-10-17T00:06:15.306Z,100.00
2022-10-17T00:08:43.201Z,100.00
2022-10-17T00:11:18.384Z,100.00
2022-10-17T00:13:46.684Z,100.00
2022-10-17T00:16:13.085Z,100.00
2022-10-17T00:18:39.530Z,100.00
2022-10-17T00:21:06.510Z,100.00
2022-10-17T00:23:33.718Z,100.00
2022-10-17T00:26:06.054Z,100.00
2022-10-17T00:28:33.110Z,100.00
2022-10-17T00:31:02.404Z,100.00
2022-10-17T00:33:29.860Z,100.00
2022-10-17T00:36:04.579Z,100.00
2022-10-17T00:38:31.027Z,100.00
2022-10-17T00:40:57.470Z,100.00
2022-10-17T00:43:24.228Z,100.00
2022-10-17T00:45:50.789Z,100.00
2022-10-17T00:48:21.227Z,100.00
2022-10-17T00:50:50.096Z,100.00
2022-10-17T00:53:18.386Z,100.00
2022-10-17T00:55:48.209Z,100.00
2022-10-17T00:58:15.535Z,100.00
2022-10-17T01:00:43.217Z,100.00
2022-10-17T01:03:09.671Z,100.00
2022-10-17T01:05:37.021Z,100.00
2022-10-17T01:08:04.029Z,100.00
2022-10-17T01:10:39.152Z,100.00
2022-10-17T01:13:17.955Z,100.00
2022-10-17T01:16:09.879Z,100.00
2022-10-17T01:18:43.852Z,100.00
2022-10-17T01:21:45.540Z,100.00
2022-10-17T01:24:45.153Z,100.00
2022-10-17T01:27:37.799Z,100.00
2022-10-17T01:30:17.301Z,100.00
2022-10-17T01:32:57.072Z,100.00
2022-10-17T01:35:29.570Z,100.00
2022-10-17T01:38:11.597Z,100.00
2022-10-17T01:40:45.895Z,100.00
2022-10-17T01:43:32.052Z,100.00
2022-10-17T01:46:06.131Z,100.00
2022-10-17T01:48:37.952Z,100.00
2022-10-17T01:51:36.307Z,100.00
2022-10-17T01:54:10.690Z,100.00
2022-10-17T01:56:40.396Z,100.00
2022-10-17T01:59:21.312Z,100.00
2022-10-17T02:01:52.309Z,100.00
2022-10-17T02:04:19.284Z,100.00
2022-10-17T02:06:45.868Z,100.00
2022-10-17T02:09:26.270Z,100.00
2022-10-17T02:12:22.479Z,100.00
2022-10-17T02:15:20.835Z,100.00
2022-10-17T02:18:00.324Z,100.00
2022-10-17T02:21:18.823Z,100.00
2022-10-17T02:23:57.314Z,100.00
2022-10-17T02:27:09.946Z,100.00
2022-10-17T02:29:55.772Z,100.00
2022-10-17T02:32:46.623Z,100.00
2022-10-17T02:35:17.414Z,100.00
2022-10-17T02:37:47.222Z,100.00
2022-10-17T02:40:16.382Z,100.00
2022-10-17T02:42:46.069Z,100.00
2022-10-17T02:45:14.570Z,100.00
2022-10-17T02:47:49.587Z,100.00
2022-10-17T02:50:16.212Z,100.00
2022-10-17T02:52:51.043Z,100.00
2022-10-17T02:55:21.075Z,100.00
2022-10-17T02:57:52.612Z,100.00
2022-10-17T03:00:20.261Z,100.00
2022-10-17T03:02:49.489Z,100.00
2022-10-17T03:05:21.139Z,100.00
2022-10-17T03:07:47.583Z,100.00
2022-10-17T03:10:14.318Z,100.00
2022-10-17T03:12:40.800Z,100.00
2022-10-17T03:15:08.051Z,100.00
2022-10-17T03:17:35.551Z,100.00
2022-10-17T03:20:02.525Z,100.00
2022-10-17T03:22:29.123Z,100.00
2022-10-17T03:24:55.734Z,100.00
2022-10-17T03:27:22.331Z,100.00
2022-10-17T03:29:48.703Z,100.00
2022-10-17T03:32:15.203Z,100.00
2022-10-17T03:34:41.624Z,100.00
2022-10-17T03:37:08.044Z,100.00
2022-10-17T03:39:34.471Z,100.00
2022-10-17T03:42:00.935Z,100.00
2022-10-17T03:44:27.412Z,100.00
2022-10-17T03:46:53.827Z,100.00
2022-10-17T03:49:20.232Z,100.00
2022-10-17T03:51:46.648Z,100.00
2022-10-17T03:54:13.223Z,100.00
2022-10-17T03:56:39.648Z,100.00
2022-10-17T03:59:06.026Z,100.00
2022-10-17T04:01:32.517Z,100.00
2022-10-17T04:03:59.011Z,100.00
2022-10-17T04:06:25.444Z,100.00
2022-10-17T04:08:51.888Z,100.00
2022-10-17T04:11:21.151Z,100.00
2022-10-17T04:13:48.059Z,100.00
2022-10-17T04:16:16.831Z,100.00
2022-10-17T04:18:44.259Z,100.00
2022-10-17T04:21:11.768Z,100.00
2022-10-17T04:23:38.709Z,100.00
2022-10-17T04:26:06.228Z,100.00
2022-10-17T04:28:33.793Z,100.00
2022-10-17T04:31:02.543Z,100.00
2022-10-17T04:33:29.044Z,100.00
2022-10-17T04:36:13.147Z,100.00
2022-10-17T04:38:40.171Z,100.00
2022-10-17T04:41:14.989Z,100.00
2022-10-17T04:43:43.542Z,100.00
2022-10-17T04:46:14.886Z,100.00
2022-10-17T04:48:41.642Z,100.00
2022-10-17T04:51:11.639Z,100.00
2022-10-17T04:53:39.157Z,100.00
2022-10-17T04:56:10.077Z,100.00
2022-10-17T04:58:37.907Z,100.00
2022-10-17T05:01:09.066Z,100.00
2022-10-17T05:03:36.120Z,100.00
2022-10-17T05:06:14.046Z,100.00
2022-10-17T05:08:40.673Z,100.00
2022-10-17T05:11:16.923Z,100.00
2022-10-17T05:13:43.365Z,100.00
2022-10-17T05:16:10.790Z,100.00
2022-10-17T05:18:37.333Z,100.00
2022-10-17T05:21:04.409Z,100.00
2022-10-17T05:23:30.910Z,100.00
2022-10-17T05:25:57.769Z,100.00
2022-10-17T05:28:24.633Z,100.00
2022-10-17T05:30:51.041Z,100.00
2022-10-17T05:33:17.476Z,100.00
2022-10-17T05:35:43.873Z,100.00
2022-10-17T05:38:10.371Z,100.00
2022-10-17T05:40:38.551Z,100.00
2022-10-17T05:43:05.364Z,100.00
2022-10-17T05:45:31.805Z,100.00
2022-10-17T05:47:58.215Z,100.00
2022-10-17T05:50:25.206Z,100.00
2022-10-17T05:52:55.783Z,100.00
2022-10-17T05:55:23.263Z,100.00
2022-10-17T05:57:52.489Z,100.00
2022-10-17T06:00:19.727Z,100.00
2022-10-17T06:02:46.593Z,100.00
2022-10-17T06:05:13.995Z,100.00
2022-10-17T06:07:41.255Z,100.00
2022-10-17T06:10:08.112Z,100.00
2022-10-17T06:12:34.526Z,100.00
2022-10-17T06:15:01.115Z,100.00
2022-10-17T06:17:29.222Z,100.00
2022-10-17T06:19:56.635Z,100.00
2022-10-17T06:22:23.450Z,100.00
2022-10-17T06:24:49.955Z,100.00
2022-10-17T06:27:16.344Z,100.00
2022-10-17T06:29:42.744Z,100.00
2022-10-17T06:32:12.562Z,100.00
2022-10-17T06:34:41.406Z,100.00
2022-10-17T06:37:07.945Z,100.00
2022-10-17T06:39:36.028Z,100.00
2022-10-17T06:42:04.210Z,100.00
2022-10-17T06:44:31.824Z,100.00
2022-10-17T06:46:59.634Z,100.00
2022-10-17T06:49:26.983Z,100.00
2022-10-17T06:51:53.967Z,100.00
2022-10-17T06:54:20.684Z,100.00
2022-10-17T06:56:47.083Z,100.00
2022-10-17T06:59:13.553Z,100.00
2022-10-17T07:01:41.894Z,100.00
2022-10-17T07:04:11.241Z,100.00
2022-10-17T07:06:38.582Z,100.00
2022-10-17T07:09:06.940Z,100.00
2022-10-17T07:11:35.021Z,100.00
2022-10-17T07:14:02.399Z,100.00
2022-10-17T07:16:28.895Z,100.00
2022-10-17T07:18:55.611Z,100.00
2022-10-17T07:21:22.067Z,100.00
2022-10-17T07:23:48.524Z,100.00
2022-10-17T07:26:16.884Z,100.00
2022-10-17T07:28:44.268Z,100.00
2022-10-17T07:31:13.467Z,100.00
2022-10-17T07:33:39.954Z,100.00
2022-10-17T07:36:06.705Z,100.00
2022-10-17T07:38:33.946Z,100.00
2022-10-17T07:41:02.905Z,100.00
2022-10-17T07:43:30.190Z,100.00
2022-10-17T07:45:57.126Z,100.00
2022-10-17T07:48:25.473Z,100.00
2022-10-17T07:50:51.864Z,100.00
2022-10-17T07:53:18.829Z,100.00
2022-10-17T07:55:46.385Z,100.00
2022-10-17T07:58:14.001Z,100.00
2022-10-17T08:00:40.525Z,100.00
2022-10-17T08:03:07.368Z,100.00
2022-10-17T08:05:34.431Z,100.00
2022-10-17T08:08:00.932Z,100.00
2022-10-17T08:10:29.236Z,100.00
2022-10-17T08:12:56.454Z,100.00
2022-10-17T08:15:26.789Z,100.00
2022-10-17T08:17:56.022Z,100.00
2022-10-17T08:20:22.553Z,100.00
2022-10-17T08:22:55.669Z,100.00
2022-10-17T08:25:22.853Z,100.00
2022-10-17T08:27:49.972Z,100.00
2022-10-17T08:30:16.955Z,100.00
2022-10-17T08:32:44.297Z,100.00
2022-10-17T08:35:10.897Z,100.00
2022-10-17T08:37:37.416Z,100.00
2022-10-17T08:40:04.518Z,100.00
2022-10-17T08:42:50.996Z,100.00
2022-10-17T08:45:38.141Z,100.00
2022-10-17T08:48:12.218Z,100.00
2022-10-17T08:51:02.029Z,100.00
2022-10-17T08:53:48.018Z,100.00
2022-10-17T08:56:44.142Z,100.00
2022-10-17T08:59:14.610Z,100.00
2022-10-17T09:02:01.642Z,100.00
2022-10-17T09:05:01.538Z,100.00
2022-10-17T09:07:39.595Z,100.00
2022-10-17T09:10:28.348Z,100.00
2022-10-17T09:13:25.834Z,100.00
2022-10-17T09:16:04.465Z,100.00
2022-10-17T09:18:36.327Z,100.00
2022-10-17T09:21:26.497Z,100.00
2022-10-17T09:24:09.731Z,100.00
2022-10-17T09:26:44.339Z,100.00
2022-10-17T09:29:22.354Z,100.00
2022-10-17T09:32:11.285Z,100.00
2022-10-17T09:34:37.908Z,100.00
2022-10-17T09:37:12.493Z,100.00
2022-10-17T09:39:38.981Z,100.00
2022-10-17T09:42:05.511Z,100.00
2022-10-17T09:44:33.435Z,100.00
2022-10-17T09:47:13.572Z,100.00
2022-10-17T09:49:45.363Z,100.00
2022-10-17T09:52:22.961Z,100.00
2022-10-17T09:54:57.283Z,100.00
2022-10-17T09:57:23.846Z,100.00
2022-10-17T09:59:58.749Z,100.00
2022-10-17T10:02:27.469Z,100.00
2022-10-17T10:05:05.912Z,100.00
2022-10-17T10:07:38.774Z,100.00
2022-10-17T10:10:08.696Z,100.00
2022-10-17T10:12:38.328Z,100.00
2022-10-17T10:15:33.652Z,100.00
2022-10-17T10:18:00.384Z,100.00
2022-10-17T10:20:36.799Z,100.00
2022-10-17T10:23:15.944Z,100.00
2022-10-17T10:25:53.091Z,100.00
2022-10-17T10:28:20.020Z,100.00
2022-10-17T10:30:49.762Z,100.00
2022-10-17T10:33:18.824Z,100.00
2022-10-17T10:35:54.285Z,100.00
2022-10-17T10:38:21.011Z,100.00
2022-10-17T10:40:50.152Z,100.00
2022-10-17T10:43:32.947Z,100.00
2022-10-17T10:46:00.553Z,100.00
2022-10-17T10:48:36.689Z,100.00
2022-10-17T10:51:19.511Z,100.00
2022-10-17T10:53:53.435Z,100.00
2022-10-17T10:56:25.991Z,100.00
2022-10-17T10:59:19.246Z,100.00
2022-10-17T11:02:17.892Z,100.00
2022-10-17T11:04:49.806Z,100.00
2022-10-17T11:07:24.930Z,100.00
2022-10-17T11:10:21.611Z,100.00
2022-10-17T11:13:13.872Z,100.00
2022-10-17T11:15:57.756Z,100.00
2022-10-17T11:18:34.162Z,100.00
2022-10-17T11:21:13.173Z,100.00
2022-10-17T11:24:07.039Z,100.00
2022-10-17T11:26:41.941Z,100.00
2022-10-17T11:29:11.910Z,100.00
2022-10-17T11:31:44.807Z,100.00
2022-10-17T11:34:27.519Z,100.00
2022-10-17T11:37:02.495Z,100.00
2022-10-17T11:39:47.342Z,100.00
2022-10-17T11:42:18.124Z,100.00
2022-10-17T11:44:44.931Z,100.00
2022-10-17T11:47:35.873Z,100.00
2022-10-17T11:53:16.719Z,100.00
2022-10-17T11:55:44.344Z,100.00
2022-10-17T11:58:35.006Z,100.00
2022-10-17T12:01:16.600Z,100.00
2022-10-17T12:03:58.734Z,100.00
2022-10-17T12:06:46.494Z,100.00
2022-10-17T12:09:54.411Z,100.00
2022-10-17T12:12:35.119Z,100.00
2022-10-17T12:15:13.990Z,100.00
2022-10-17T12:17:55.608Z,100.00
2022-10-17T12:20:25.142Z,100.00
2022-10-17T12:22:53.109Z,100.00
2022-10-17T12:25:29.741Z,100.00
2022-10-17T12:28:17.491Z,100.00
2022-10-17T12:30:51.674Z,100.00
2022-10-17T12:33:22.597Z,100.00
2022-10-17T12:35:51.205Z,100.00
2022-10-17T12:38:17.560Z,100.00
2022-10-17T12:40:47.862Z,100.00
2022-10-17T12:43:16.217Z,100.00
2022-10-17T12:45:50.208Z,100.00
2022-10-17T12:48:38.529Z,100.00
2022-10-17T12:51:35.191Z,100.00
2022-10-17T12:54:12.208Z,100.00
2022-10-17T12:56:41.973Z,100.00
2022-10-17T12:59:29.299Z,100.00
2022-10-17T13:02:01.744Z,100.00
2022-10-17T13:04:29.819Z,100.00
2022-10-17T13:06:59.110Z,100.00
2022-10-17T13:09:37.473Z,100.00
2022-10-17T13:12:11.172Z,100.00
2022-10-17T13:14:41.482Z,100.00
2022-10-17T13:17:28.735Z,100.00
2022-10-17T13:19:55.894Z,100.00
2022-10-17T13:22:25.395Z,100.00
2022-10-17T13:24:53.953Z,100.00
2022-10-17T13:27:28.435Z,100.00
2022-10-17T13:29:56.762Z,100.00
2022-10-17T13:32:24.137Z,100.00
2022-10-17T13:35:08.333Z,100.00
2022-10-17T13:37:36.137Z,100.00
2022-10-17T13:40:17.469Z,100.00
2022-10-17T13:42:50.970Z,100.00
2022-10-17T13:45:29.412Z,100.00
2022-10-17T13:47:57.617Z,100.00
2022-10-17T13:50:44.840Z,100.00
2022-10-17T13:53:19.160Z,100.00
2022-10-17T13:56:26.351Z,100.00
2022-10-17T13:58:53.289Z,100.00
2022-10-17T14:01:21.371Z,100.00
2022-10-17T14:03:50.604Z,100.00
2022-10-17T14:06:27.973Z,100.00
2022-10-17T14:09:06.528Z,100.00
2022-10-17T14:11:37.842Z,100.00
2022-10-17T14:14:07.154Z,100.00
2022-10-17T14:16:37.173Z,100.00
2022-10-17T14:19:05.176Z,100.00
2022-10-17T14:21:43.327Z,100.00
2022-10-17T14:24:37.081Z,100.00
2022-10-17T14:27:03.609Z,100.00
2022-10-17T14:29:32.880Z,100.00
2022-10-17T14:32:05.379Z,100.00
2022-10-17T14:34:35.660Z,100.00
2022-10-17T14:37:08.003Z,100.00
2022-10-17T14:39:34.423Z,100.00
2022-10-17T14:42:04.410Z,100.00
2022-10-17T14:44:33.924Z,100.00
2022-10-17T14:47:18.318Z,100.00
2022-10-17T14:49:52.204Z,100.00
2022-10-17T14:52:29.210Z,100.00
2022-10-17T14:54:57.385Z,100.00
2022-10-17T14:57:28.732Z,100.00
2022-10-17T14:59:56.530Z,100.00
2022-10-17T15:02:25.474Z,100.00
2022-10-17T15:04:52.713Z,100.00
2022-10-17T15:07:21.046Z,100.00
2022-10-17T15:09:48.408Z,100.00
2022-10-17T15:12:25.138Z,100.00
2022-10-17T15:14:52.870Z,100.00
2022-10-17T15:17:24.190Z,100.00
2022-10-17T15:19:50.836Z,100.00
2022-10-17T15:22:18.236Z,100.00
2022-10-17T15:24:48.058Z,100.00
2022-10-17T15:27:17.193Z,100.00
2022-10-17T15:29:44.762Z,100.00
2022-10-17T15:32:11.426Z,100.00
2022-10-17T15:34:38.059Z,100.00
2022-10-17T15:37:06.760Z,100.00
2022-10-17T15:39:33.583Z,100.00
2022-10-17T15:42:00.123Z,100.00
2022-10-17T15:44:26.644Z,100.00
2022-10-17T15:46:55.427Z,100.00
2022-10-17T15:49:21.824Z,100.00
2022-10-17T15:51:51.705Z,100.00
2022-10-17T15:54:21.857Z,100.00
2022-10-17T15:56:54.077Z,100.00
2022-10-17T15:59:26.671Z,100.00
2022-10-17T16:01:53.171Z,100.00
2022-10-17T16:04:19.645Z,100.00
2022-10-17T16:06:46.118Z,100.00
2022-10-17T16:09:12.591Z,100.00
2022-10-17T16:11:43.277Z,100.00
2022-10-17T16:14:15.536Z,100.00
2022-10-17T16:16:42.387Z,100.00
2022-10-17T16:19:09.025Z,100.00
2022-10-17T16:21:39.991Z,100.00
2022-10-17T16:24:07.055Z,100.00
2022-10-17T16:26:33.524Z,100.00
2022-10-17T16:29:02.759Z,100.00
2022-10-17T16:31:33.541Z,100.00
2022-10-17T16:34:01.552Z,98.99
2022-10-17T16:36:28.600Z,96.99
2022-10-17T16:38:55.127Z,96.65
2022-10-17T16:41:34.268Z,96.29
2022-10-17T16:44:04.284Z,95.55
2022-10-17T16:46:32.198Z,94.81
2022-10-17T16:48:59.408Z,94.42
2022-10-17T16:51:25.975Z,93.83
2022-10-17T16:53:54.365Z,93.24
2022-10-17T16:56:22.722Z,96.47
2022-10-17T16:58:49.253Z,90.56
2022-10-17T17:01:23.260Z,90.47
2022-10-17T17:03:50.838Z,90.37
2022-10-17T17:06:20.650Z,89.99
2022-10-17T17:08:47.628Z,89.89
2022-10-17T17:11:15.679Z,89.33
2022-10-17T17:13:42.537Z,89.30
2022-10-17T17:16:11.825Z,89.18
2022-10-17T17:18:38.652Z,89.00
2022-10-17T17:21:07.262Z,91.48
2022-10-17T17:23:36.028Z,88.18
2022-10-17T17:26:05.619Z,89.09
2022-10-17T17:28:33.650Z,88.44
2022-10-17T17:31:00.848Z,86.86
2022-10-17T17:33:29.728Z,86.46
2022-10-17T17:35:58.204Z,86.52
2022-10-17T17:38:24.880Z,86.88
2022-10-17T17:40:51.956Z,86.87
2022-10-17T17:43:18.859Z,87.03
2022-10-17T17:45:45.606Z,86.86
2022-10-17T17:48:12.340Z,86.80
2022-10-17T17:50:40.562Z,86.90
2022-10-17T17:53:08.456Z,87.05
2022-10-17T17:55:34.996Z,86.97
2022-10-17T17:58:02.042Z,86.74
2022-10-17T18:00:29.105Z,86.73
2022-10-17T18:02:56.424Z,86.70
2022-10-17T18:05:22.989Z,86.66
2022-10-17T18:07:49.459Z,86.86
2022-10-17T18:10:16.089Z,88.29
2022-10-17T18:12:42.696Z,85.98
2022-10-17T18:15:09.554Z,86.23
2022-10-17T18:17:36.335Z,86.23
2022-10-17T18:20:03.445Z,86.35
2022-10-17T18:22:30.027Z,86.62
2022-10-17T18:24:56.629Z,86.76
2022-10-17T18:27:23.319Z,86.70
2022-10-17T18:29:51.138Z,86.50
2022-10-17T18:32:18.073Z,86.48
2022-10-17T18:34:44.472Z,86.28
2022-10-17T18:37:10.886Z,86.48
2022-10-17T18:39:37.330Z,86.49
2022-10-17T18:42:03.859Z,86.49
2022-10-17T18:44:32.533Z,86.50
2022-10-17T18:47:03.047Z,86.55
2022-10-17T18:49:30.988Z,86.63
2022-10-17T18:51:57.706Z,86.64
2022-10-17T18:54:27.087Z,86.74
2022-10-17T18:56:54.447Z,86.81
2022-10-17T18:59:21.224Z,86.80
2022-10-17T19:01:48.744Z,86.86
2022-10-17T19:04:15.372Z,86.89
2022-10-17T19:06:42.180Z,86.91
2022-10-17T19:09:10.912Z,86.76
2022-10-17T19:11:38.559Z,86.78
2022-10-17T19:14:12.812Z,86.74
2022-10-17T19:16:43.326Z,86.88
2022-10-17T19:19:21.616Z,86.83
2022-10-17T19:21:48.550Z,86.76
2022-10-17T19:24:18.843Z,86.64
2022-10-17T19:26:46.636Z,86.79
2022-10-17T19:29:15.153Z,86.67
2022-10-17T19:31:41.961Z,86.69
2022-10-17T19:34:09.863Z,86.67
2022-10-17T19:36:36.427Z,86.69
2022-10-17T19:39:05.796Z,86.67
2022-10-17T19:41:33.076Z,86.69
2022-10-17T19:44:00.431Z,86.53
2022-10-17T19:46:28.627Z,86.59
2022-10-17T19:48:55.671Z,86.63
2022-10-17T19:51:24.488Z,86.68
2022-10-17T19:53:52.476Z,86.64
2022-10-17T19:56:23.249Z,86.53
2022-10-17T19:58:50.852Z,86.47
2022-10-17T20:01:20.769Z,86.41
2022-10-17T20:03:47.697Z,86.38
2022-10-17T20:06:14.361Z,86.43
2022-10-17T20:08:41.852Z,86.38
2022-10-17T20:11:13.062Z,86.48
2022-10-17T20:13:40.549Z,86.61
2022-10-17T20:16:09.055Z,86.73
2022-10-17T20:18:35.770Z,86.71
2022-10-17T20:21:05.166Z,86.72
2022-10-17T20:23:31.790Z,86.97
2022-10-17T20:26:13.354Z,86.98
2022-10-17T20:28:45.563Z,86.92
2022-10-17T20:31:12.755Z,86.50
2022-10-17T20:33:41.381Z,86.68
2022-10-17T20:36:10.019Z,86.35
2022-10-17T20:38:36.719Z,86.35
2022-10-17T20:41:08.777Z,86.29
2022-10-17T20:43:36.590Z,86.29
2022-10-17T20:46:21.917Z,86.51
2022-10-17T20:48:54.033Z,86.34
2022-10-17T20:51:21.732Z,86.28
2022-10-17T20:53:48.830Z,86.13
2022-10-17T20:56:27.368Z,85.99
2022-10-17T20:58:56.414Z,85.97
2022-10-17T21:01:23.846Z,86.06
2022-10-17T21:03:50.626Z,86.14
2022-10-17T21:06:18.155Z,86.09
2022-10-17T21:08:46.242Z,86.12
2022-10-17T21:11:21.885Z,86.01
2022-10-17T21:13:53.689Z,86.28
2022-10-17T21:16:20.361Z,86.35
2022-10-17T21:18:46.864Z,86.55
2022-10-17T21:21:16.599Z,86.52
2022-10-17T21:23:44.433Z,86.48
2022-10-17T21:26:12.665Z,86.43
2022-10-17T21:28:42.476Z,86.66
2022-10-17T21:31:17.945Z,86.82
2022-10-17T21:33:50.116Z,86.66
2022-10-17T21:36:17.494Z,86.77
2022-10-17T21:38:48.767Z,86.76
2022-10-17T21:41:17.709Z,86.58
2022-10-17T21:43:44.116Z,86.60
2022-10-17T21:46:14.147Z,86.43
2022-10-17T21:48:41.206Z,86.42
2022-10-17T21:51:10.941Z,86.48
2022-10-17T21:53:38.079Z,86.53
2022-10-17T21:56:07.324Z,86.45
2022-10-17T21:58:33.786Z,86.50
2022-10-17T22:01:10.380Z,86.47
2022-10-17T22:03:42.691Z,86.56
2022-10-17T22:09:00.657Z,86.57
2022-10-17T22:11:30.331Z,86.58
2022-10-17T22:14:01.982Z,86.67
2022-10-17T22:16:28.893Z,86.78
2022-10-17T22:19:06.216Z,86.76
2022-10-17T22:21:34.764Z,86.83
2022-10-17T22:24:06.868Z,86.76
2022-10-17T22:26:35.584Z,86.77
2022-10-17T22:29:03.044Z,86.89
2022-10-17T22:31:29.586Z,86.78
2022-10-17T22:33:56.417Z,86.74
2022-10-17T22:36:23.088Z,86.81
2022-10-17T22:38:49.552Z,86.83
2022-10-17T22:41:15.999Z,86.84
2022-10-17T22:43:42.567Z,86.88
2022-10-17T22:46:12.851Z,86.77
2022-10-17T22:48:39.683Z,86.72
2022-10-17T22:51:06.324Z,86.86
2022-10-17T22:53:32.754Z,86.86
2022-10-17T22:56:01.081Z,86.90
2022-10-17T22:58:28.283Z,86.75
2022-10-17T23:00:55.060Z,86.83
2022-10-17T23:03:22.648Z,86.66
2022-10-17T23:05:49.715Z,86.62
2022-10-17T23:08:18.008Z,86.65
2022-10-17T23:10:44.955Z,86.70
2022-10-17T23:13:11.836Z,86.88
2022-10-17T23:15:38.311Z,86.97
2022-10-17T23:18:04.870Z,86.98
2022-10-17T23:20:31.610Z,87.00
2022-10-17T23:22:59.181Z,87.02
2022-10-17T23:25:25.927Z,87.03
2022-10-17T23:27:52.423Z,86.96
2022-10-17T23:30:18.939Z,86.99
2022-10-17T23:32:45.364Z,87.02
2022-10-17T23:35:13.251Z,87.09
2022-10-17T23:37:39.681Z,87.17
2022-10-17T23:40:06.707Z,87.01
2022-10-17T23:42:33.129Z,87.00
2022-10-17T23:44:59.568Z,87.00
2022-10-17T23:47:26.008Z,87.14
2022-10-17T23:49:52.449Z,87.28
2022-10-17T23:52:18.906Z,87.07
2022-10-17T23:54:45.353Z,87.08
2022-10-17T23:57:11.785Z,86.98
2022-10-17T23:59:38.226Z,87.18
